sensor_id;sensor_type;location;lat;lon;timestamp;P1;durP1;ratioP1;P2;durP2;ratioP2
80199;SDS011;69520;44.900;-0.764;2024-02-04T00:00:36;15.10;;;3.70;;
80199;SDS011;69520;44.900;-0.764;2024-02-04T00:03:02;12.40;;;4.00;;
80199;SDS011;69520;44.900;-0.764;2024-02-04T00:05:29;9.88;;;3.15;;
80199;SDS011;69520;44.900;-0.764;2024-02-04T00:07:55;16.92;;;4.10;;
80199;SDS011;69520;44.900;-0.764;2024-02-04T00:10:21;10.87;;;3.50;;
80199;SDS011;69520;44.900;-0.764;2024-02-04T00:12:47;14.55;;;3.88;;
80199;SDS011;69520;44.900;-0.764;2024-02-04T00:15:13;13.50;;;4.05;;
80199;SDS011;69520;44.900;-0.764;2024-02-04T00:17:39;10.35;;;3.72;;
80199;SDS011;69520;44.900;-0.764;2024-02-04T00:20:05;11.15;;;3.55;;
80199;SDS011;69520;44.900;-0.764;2024-02-04T00:22:32;11.33;;;3.63;;
80199;SDS011;69520;44.900;-0.764;2024-02-04T00:24:59;13.07;;;4.10;;
80199;SDS011;69520;44.900;-0.764;2024-02-04T00:27:30;14.48;;;3.92;;
80199;SDS011;69520;44.900;-0.764;2024-02-04T00:29:56;17.45;;;4.22;;
80199;SDS011;69520;44.900;-0.764;2024-02-04T00:32:23;12.48;;;3.67;;
80199;SDS011;69520;44.900;-0.764;2024-02-04T00:34:49;14.50;;;3.33;;
80199;SDS011;69520;44.900;-0.764;2024-02-04T00:37:15;11.68;;;3.97;;
80199;SDS011;69520;44.900;-0.764;2024-02-04T00:39:41;10.32;;;3.35;;
80199;SDS011;69520;44.900;-0.764;2024-02-04T00:42:07;10.70;;;3.70;;
80199;SDS011;69520;44.900;-0.764;2024-02-04T00:44:33;11.60;;;3.42;;
80199;SDS011;69520;44.900;-0.764;2024-02-04T00:47:00;12.67;;;3.33;;
80199;SDS011;69520;44.900;-0.764;2024-02-04T00:49:26;10.85;;;3.42;;
80199;SDS011;69520;44.900;-0.764;2024-02-04T00:51:52;11.52;;;3.53;;
80199;SDS011;69520;44.900;-0.764;2024-02-04T00:54:18;14.32;;;4.05;;
80199;SDS011;69520;44.900;-0.764;2024-02-04T00:56:44;10.73;;;3.50;;
80199;SDS011;69520;44.900;-0.764;2024-02-04T00:59:10;11.97;;;4.13;;
80199;SDS011;69520;44.900;-0.764;2024-02-04T01:01:37;14.18;;;4.20;;
80199;SDS011;69520;44.900;-0.764;2024-02-04T01:04:03;12.48;;;4.20;;
80199;SDS011;69520;44.900;-0.764;2024-02-04T01:06:29;17.90;;;4.90;;
80199;SDS011;69520;44.900;-0.764;2024-02-04T01:08:58;13.65;;;3.97;;
80199;SDS011;69520;44.900;-0.764;2024-02-04T01:11:24;11.43;;;3.97;;
80199;SDS011;69520;44.900;-0.764;2024-02-04T01:13:50;12.93;;;3.78;;
80199;SDS011;69520;44.900;-0.764;2024-02-04T01:16:16;15.25;;;3.92;;
80199;SDS011;69520;44.900;-0.764;2024-02-04T01:18:42;11.77;;;4.05;;
80199;SDS011;69520;44.900;-0.764;2024-02-04T01:21:08;12.18;;;3.88;;
80199;SDS011;69520;44.900;-0.764;2024-02-04T01:23:34;12.07;;;3.87;;
80199;SDS011;69520;44.900;-0.764;2024-02-04T01:26:01;17.40;;;3.78;;
80199;SDS011;69520;44.900;-0.764;2024-02-04T01:28:27;17.05;;;4.60;;
80199;SDS011;69520;44.900;-0.764;2024-02-04T01:30:53;12.57;;;4.05;;
80199;SDS011;69520;44.900;-0.764;2024-02-04T01:33:19;13.85;;;4.03;;
80199;SDS011;69520;44.900;-0.764;2024-02-04T01:35:45;16.47;;;4.23;;
80199;SDS011;69520;44.900;-0.764;2024-02-04T01:38:11;12.38;;;3.90;;
80199;SDS011;69520;44.900;-0.764;2024-02-04T01:40:37;18.88;;;3.88;;
80199;SDS011;69520;44.900;-0.764;2024-02-04T01:43:03;15.20;;;3.78;;
80199;SDS011;69520;44.900;-0.764;2024-02-04T01:45:29;13.57;;;4.68;;
80199;SDS011;69520;44.900;-0.764;2024-02-04T01:47:55;12.50;;;4.43;;
80199;SDS011;69520;44.900;-0.764;2024-02-04T01:50:21;17.08;;;4.43;;
80199;SDS011;69520;44.900;-0.764;2024-02-04T01:52:47;16.65;;;4.90;;
80199;SDS011;69520;44.900;-0.764;2024-02-04T01:55:14;23.83;;;4.53;;
80199;SDS011;69520;44.900;-0.764;2024-02-04T01:57:40;25.55;;;4.53;;
80199;SDS011;69520;44.900;-0.764;2024-02-04T02:00:07;25.00;;;4.80;;
80199;SDS011;69520;44.900;-0.764;2024-02-04T02:02:34;29.13;;;4.78;;
80199;SDS011;69520;44.900;-0.764;2024-02-04T02:05:02;12.95;;;3.53;;
80199;SDS011;69520;44.900;-0.764;2024-02-04T02:07:30;29.42;;;3.95;;
80199;SDS011;69520;44.900;-0.764;2024-02-04T02:09:56;11.98;;;3.92;;
80199;SDS011;69520;44.900;-0.764;2024-02-04T02:12:25;16.13;;;3.43;;
80199;SDS011;69520;44.900;-0.764;2024-02-04T02:14:55;15.63;;;4.50;;
80199;SDS011;69520;44.900;-0.764;2024-02-04T02:17:24;13.82;;;3.45;;
80199;SDS011;69520;44.900;-0.764;2024-02-04T02:19:57;11.68;;;3.45;;
80199;SDS011;69520;44.900;-0.764;2024-02-04T02:22:39;13.32;;;3.42;;
80199;SDS011;69520;44.900;-0.764;2024-02-04T02:25:05;13.33;;;3.17;;
80199;SDS011;69520;44.900;-0.764;2024-02-04T02:27:32;15.07;;;3.45;;
80199;SDS011;69520;44.900;-0.764;2024-02-04T02:29:59;13.93;;;3.58;;
80199;SDS011;69520;44.900;-0.764;2024-02-04T02:32:25;14.20;;;3.30;;
80199;SDS011;69520;44.900;-0.764;2024-02-04T02:34:51;11.75;;;3.70;;
80199;SDS011;69520;44.900;-0.764;2024-02-04T02:37:35;18.17;;;3.50;;
80199;SDS011;69520;44.900;-0.764;2024-02-04T02:40:05;14.23;;;3.22;;
80199;SDS011;69520;44.900;-0.764;2024-02-04T02:42:35;11.15;;;2.95;;
80199;SDS011;69520;44.900;-0.764;2024-02-04T02:45:01;15.52;;;3.40;;
80199;SDS011;69520;44.900;-0.764;2024-02-04T02:47:28;13.18;;;3.70;;
80199;SDS011;69520;44.900;-0.764;2024-02-04T02:49:55;11.67;;;3.60;;
80199;SDS011;69520;44.900;-0.764;2024-02-04T02:52:21;21.25;;;3.78;;
80199;SDS011;69520;44.900;-0.764;2024-02-04T02:54:47;15.07;;;3.20;;
80199;SDS011;69520;44.900;-0.764;2024-02-04T02:57:13;23.15;;;3.67;;
80199;SDS011;69520;44.900;-0.764;2024-02-04T02:59:39;13.85;;;3.58;;
80199;SDS011;69520;44.900;-0.764;2024-02-04T03:02:05;11.43;;;3.07;;
80199;SDS011;69520;44.900;-0.764;2024-02-04T03:04:31;17.42;;;4.07;;
80199;SDS011;69520;44.900;-0.764;2024-02-04T03:06:57;13.88;;;3.47;;
80199;SDS011;69520;44.900;-0.764;2024-02-04T03:09:23;18.85;;;3.10;;
80199;SDS011;69520;44.900;-0.764;2024-02-04T03:11:49;15.23;;;3.40;;
80199;SDS011;69520;44.900;-0.764;2024-02-04T03:14:15;12.70;;;3.07;;
80199;SDS011;69520;44.900;-0.764;2024-02-04T03:16:45;11.93;;;2.90;;
80199;SDS011;69520;44.900;-0.764;2024-02-04T03:19:11;11.10;;;2.78;;
80199;SDS011;69520;44.900;-0.764;2024-02-04T03:21:37;12.10;;;2.45;;
80199;SDS011;69520;44.900;-0.764;2024-02-04T03:24:03;11.95;;;2.70;;
80199;SDS011;69520;44.900;-0.764;2024-02-04T03:26:29;9.23;;;2.87;;
80199;SDS011;69520;44.900;-0.764;2024-02-04T03:28:55;14.43;;;3.17;;
80199;SDS011;69520;44.900;-0.764;2024-02-04T03:31:21;8.77;;;2.55;;
80199;SDS011;69520;44.900;-0.764;2024-02-04T03:33:48;10.70;;;2.55;;
80199;SDS011;69520;44.900;-0.764;2024-02-04T03:36:24;10.50;;;2.58;;
80199;SDS011;69520;44.900;-0.764;2024-02-04T03:38:50;10.70;;;2.50;;
80199;SDS011;69520;44.900;-0.764;2024-02-04T03:41:16;11.80;;;2.85;;
80199;SDS011;69520;44.900;-0.764;2024-02-04T03:43:43;9.70;;;2.63;;
80199;SDS011;69520;44.900;-0.764;2024-02-04T03:46:13;7.95;;;2.35;;
80199;SDS011;69520;44.900;-0.764;2024-02-04T03:48:39;9.20;;;2.25;;
80199;SDS011;69520;44.900;-0.764;2024-02-04T03:51:05;8.07;;;1.93;;
80199;SDS011;69520;44.900;-0.764;2024-02-04T03:53:31;8.25;;;2.40;;
80199;SDS011;69520;44.900;-0.764;2024-02-04T03:55:57;8.98;;;2.03;;
80199;SDS011;69520;44.900;-0.764;2024-02-04T03:58:23;7.45;;;2.13;;
80199;SDS011;69520;44.900;-0.764;2024-02-04T04:00:57;7.22;;;2.03;;
80199;SDS011;69520;44.900;-0.764;2024-02-04T04:03:24;7.80;;;2.27;;
80199;SDS011;69520;44.900;-0.764;2024-02-04T04:05:50;9.73;;;2.10;;
80199;SDS011;69520;44.900;-0.764;2024-02-04T04:08:16;8.57;;;2.08;;
80199;SDS011;69520;44.900;-0.764;2024-02-04T04:10:43;9.65;;;2.17;;
80199;SDS011;69520;44.900;-0.764;2024-02-04T04:13:09;11.98;;;2.42;;
80199;SDS011;69520;44.900;-0.764;2024-02-04T04:15:36;7.73;;;2.17;;
80199;SDS011;69520;44.900;-0.764;2024-02-04T04:18:02;7.13;;;1.92;;
80199;SDS011;69520;44.900;-0.764;2024-02-04T04:20:28;8.63;;;2.05;;
80199;SDS011;69520;44.900;-0.764;2024-02-04T04:22:54;9.68;;;2.25;;
80199;SDS011;69520;44.900;-0.764;2024-02-04T04:25:20;8.98;;;2.35;;
80199;SDS011;69520;44.900;-0.764;2024-02-04T04:27:46;8.00;;;2.03;;
80199;SDS011;69520;44.900;-0.764;2024-02-04T04:30:12;8.07;;;2.17;;
80199;SDS011;69520;44.900;-0.764;2024-02-04T04:32:38;8.20;;;2.17;;
80199;SDS011;69520;44.900;-0.764;2024-02-04T04:35:04;11.20;;;2.38;;
80199;SDS011;69520;44.900;-0.764;2024-02-04T04:37:30;7.97;;;2.10;;
80199;SDS011;69520;44.900;-0.764;2024-02-04T04:39:56;8.60;;;2.03;;
80199;SDS011;69520;44.900;-0.764;2024-02-04T04:42:22;8.93;;;2.03;;
80199;SDS011;69520;44.900;-0.764;2024-02-04T04:44:48;9.68;;;2.25;;
80199;SDS011;69520;44.900;-0.764;2024-02-04T04:47:14;8.52;;;1.80;;
80199;SDS011;69520;44.900;-0.764;2024-02-04T04:49:40;11.25;;;3.00;;
80199;SDS011;69520;44.900;-0.764;2024-02-04T04:52:06;7.93;;;2.00;;
80199;SDS011;69520;44.900;-0.764;2024-02-04T04:54:32;9.32;;;2.10;;
80199;SDS011;69520;44.900;-0.764;2024-02-04T04:56:58;11.23;;;2.15;;
80199;SDS011;69520;44.900;-0.764;2024-02-04T04:59:24;9.77;;;2.35;;
80199;SDS011;69520;44.900;-0.764;2024-02-04T05:01:50;8.82;;;2.20;;
80199;SDS011;69520;44.900;-0.764;2024-02-04T05:04:16;8.37;;;2.10;;
80199;SDS011;69520;44.900;-0.764;2024-02-04T05:06:50;8.95;;;1.80;;
80199;SDS011;69520;44.900;-0.764;2024-02-04T05:09:16;8.20;;;1.77;;
80199;SDS011;69520;44.900;-0.764;2024-02-04T05:11:42;7.38;;;1.48;;
80199;SDS011;69520;44.900;-0.764;2024-02-04T05:14:08;7.40;;;1.70;;
80199;SDS011;69520;44.900;-0.764;2024-02-04T05:16:34;7.43;;;2.10;;
80199;SDS011;69520;44.900;-0.764;2024-02-04T05:19:01;7.68;;;1.70;;
80199;SDS011;69520;44.900;-0.764;2024-02-04T05:21:27;6.38;;;1.52;;
80199;SDS011;69520;44.900;-0.764;2024-02-04T05:23:53;8.25;;;1.85;;
80199;SDS011;69520;44.900;-0.764;2024-02-04T05:26:19;6.70;;;1.52;;
80199;SDS011;69520;44.900;-0.764;2024-02-04T05:28:45;6.23;;;1.60;;
80199;SDS011;69520;44.900;-0.764;2024-02-04T05:31:12;7.75;;;1.90;;
80199;SDS011;69520;44.900;-0.764;2024-02-04T05:33:38;6.95;;;1.77;;
80199;SDS011;69520;44.900;-0.764;2024-02-04T05:36:04;6.57;;;1.63;;
80199;SDS011;69520;44.900;-0.764;2024-02-04T05:38:30;6.35;;;1.58;;
80199;SDS011;69520;44.900;-0.764;2024-02-04T05:40:56;6.63;;;1.60;;
80199;SDS011;69520;44.900;-0.764;2024-02-04T05:43:22;6.93;;;1.70;;
80199;SDS011;69520;44.900;-0.764;2024-02-04T05:45:48;8.45;;;1.92;;
80199;SDS011;69520;44.900;-0.764;2024-02-04T05:48:14;8.50;;;1.63;;
80199;SDS011;69520;44.900;-0.764;2024-02-04T05:50:40;12.05;;;2.20;;
80199;SDS011;69520;44.900;-0.764;2024-02-04T05:53:06;8.03;;;2.30;;
80199;SDS011;69520;44.900;-0.764;2024-02-04T05:55:33;7.88;;;2.00;;
80199;SDS011;69520;44.900;-0.764;2024-02-04T05:57:59;6.43;;;1.50;;
80199;SDS011;69520;44.900;-0.764;2024-02-04T06:00:25;6.93;;;1.60;;
80199;SDS011;69520;44.900;-0.764;2024-02-04T06:02:51;7.13;;;1.40;;
80199;SDS011;69520;44.900;-0.764;2024-02-04T06:05:17;7.03;;;1.60;;
80199;SDS011;69520;44.900;-0.764;2024-02-04T06:07:43;8.50;;;1.70;;
80199;SDS011;69520;44.900;-0.764;2024-02-04T06:10:09;7.15;;;1.52;;
80199;SDS011;69520;44.900;-0.764;2024-02-04T06:12:35;6.47;;;1.30;;
80199;SDS011;69520;44.900;-0.764;2024-02-04T06:15:02;7.75;;;1.92;;
80199;SDS011;69520;44.900;-0.764;2024-02-04T06:17:28;6.43;;;1.40;;
80199;SDS011;69520;44.900;-0.764;2024-02-04T06:19:54;7.18;;;1.52;;
80199;SDS011;69520;44.900;-0.764;2024-02-04T06:22:22;7.25;;;1.70;;
80199;SDS011;69520;44.900;-0.764;2024-02-04T06:24:49;6.03;;;1.20;;
80199;SDS011;69520;44.900;-0.764;2024-02-04T06:27:15;7.25;;;1.15;;
80199;SDS011;69520;44.900;-0.764;2024-02-04T06:29:41;6.23;;;1.57;;
80199;SDS011;69520;44.900;-0.764;2024-02-04T06:32:07;6.63;;;1.23;;
80199;SDS011;69520;44.900;-0.764;2024-02-04T06:34:33;5.25;;;1.00;;
80199;SDS011;69520;44.900;-0.764;2024-02-04T06:36:59;5.55;;;1.10;;
80199;SDS011;69520;44.900;-0.764;2024-02-04T06:39:25;7.70;;;1.00;;
80199;SDS011;69520;44.900;-0.764;2024-02-04T06:41:51;6.87;;;1.40;;
80199;SDS011;69520;44.900;-0.764;2024-02-04T06:44:17;5.97;;;1.50;;
80199;SDS011;69520;44.900;-0.764;2024-02-04T06:46:43;5.13;;;1.10;;
80199;SDS011;69520;44.900;-0.764;2024-02-04T06:49:09;5.47;;;1.05;;
80199;SDS011;69520;44.900;-0.764;2024-02-04T06:51:36;6.05;;;1.10;;
80199;SDS011;69520;44.900;-0.764;2024-02-04T06:54:02;6.73;;;1.20;;
80199;SDS011;69520;44.900;-0.764;2024-02-04T06:56:28;6.60;;;1.40;;
80199;SDS011;69520;44.900;-0.764;2024-02-04T06:58:54;7.95;;;2.00;;
80199;SDS011;69520;44.900;-0.764;2024-02-04T07:01:20;7.20;;;1.50;;
80199;SDS011;69520;44.900;-0.764;2024-02-04T07:03:46;7.68;;;1.77;;
80199;SDS011;69520;44.900;-0.764;2024-02-04T07:06:12;8.13;;;1.63;;
80199;SDS011;69520;44.900;-0.764;2024-02-04T07:08:39;7.35;;;1.83;;
80199;SDS011;69520;44.900;-0.764;2024-02-04T07:11:05;8.70;;;2.22;;
80199;SDS011;69520;44.900;-0.764;2024-02-04T07:13:31;9.35;;;2.47;;
80199;SDS011;69520;44.900;-0.764;2024-02-04T07:15:57;8.45;;;2.05;;
80199;SDS011;69520;44.900;-0.764;2024-02-04T14:47:03;15.80;;;5.93;;
80199;SDS011;69520;44.900;-0.764;2024-02-04T14:49:29;13.65;;;5.13;;
80199;SDS011;69520;44.900;-0.764;2024-02-04T14:51:56;14.60;;;5.85;;
80199;SDS011;69520;44.900;-0.764;2024-02-04T14:54:22;13.75;;;5.18;;
80199;SDS011;69520;44.900;-0.764;2024-02-04T14:56:48;12.83;;;5.00;;
80199;SDS011;69520;44.900;-0.764;2024-02-04T14:59:16;12.25;;;5.05;;
80199;SDS011;69520;44.900;-0.764;2024-02-04T15:01:45;14.10;;;5.32;;
80199;SDS011;69520;44.900;-0.764;2024-02-04T15:04:11;15.00;;;6.05;;
80199;SDS011;69520;44.900;-0.764;2024-02-04T15:06:38;13.60;;;5.40;;
80199;SDS011;69520;44.900;-0.764;2024-02-04T15:09:05;12.77;;;5.33;;
80199;SDS011;69520;44.900;-0.764;2024-02-04T15:11:31;13.55;;;5.93;;
80199;SDS011;69520;44.900;-0.764;2024-02-04T15:13:57;13.80;;;5.50;;
80199;SDS011;69520;44.900;-0.764;2024-02-04T15:16:23;11.35;;;4.93;;
80199;SDS011;69520;44.900;-0.764;2024-02-04T15:18:50;15.50;;;5.70;;
80199;SDS011;69520;44.900;-0.764;2024-02-04T15:21:16;13.63;;;5.80;;
80199;SDS011;69520;44.900;-0.764;2024-02-04T15:23:42;13.80;;;6.00;;
80199;SDS011;69520;44.900;-0.764;2024-02-04T15:26:10;12.90;;;5.78;;
80199;SDS011;69520;44.900;-0.764;2024-02-04T15:28:38;11.75;;;4.90;;
80199;SDS011;69520;44.900;-0.764;2024-02-04T15:31:04;14.05;;;5.68;;
80199;SDS011;69520;44.900;-0.764;2024-02-04T15:33:31;12.83;;;5.53;;
80199;SDS011;69520;44.900;-0.764;2024-02-04T15:35:57;12.98;;;5.65;;
80199;SDS011;69520;44.900;-0.764;2024-02-04T15:38:23;11.35;;;4.57;;
80199;SDS011;69520;44.900;-0.764;2024-02-04T15:40:49;12.48;;;5.07;;
80199;SDS011;69520;44.900;-0.764;2024-02-04T15:43:15;12.30;;;4.82;;
80199;SDS011;69520;44.900;-0.764;2024-02-04T15:45:41;12.23;;;5.30;;
80199;SDS011;69520;44.900;-0.764;2024-02-04T15:48:07;14.10;;;5.35;;
80199;SDS011;69520;44.900;-0.764;2024-02-04T15:50:34;12.32;;;4.95;;
80199;SDS011;69520;44.900;-0.764;2024-02-04T15:53:01;11.38;;;4.82;;
80199;SDS011;69520;44.900;-0.764;2024-02-04T15:55:27;12.68;;;5.00;;
80199;SDS011;69520;44.900;-0.764;2024-02-04T15:57:53;12.17;;;4.67;;
80199;SDS011;69520;44.900;-0.764;2024-02-04T16:00:20;11.00;;;4.65;;
80199;SDS011;69520;44.900;-0.764;2024-02-04T16:02:53;12.05;;;4.95;;
80199;SDS011;69520;44.900;-0.764;2024-02-04T16:05:19;13.25;;;5.75;;
80199;SDS011;69520;44.900;-0.764;2024-02-04T16:07:45;11.57;;;4.93;;
80199;SDS011;69520;44.900;-0.764;2024-02-04T16:10:12;14.07;;;5.97;;
80199;SDS011;69520;44.900;-0.764;2024-02-04T16:12:44;13.45;;;5.68;;
80199;SDS011;69520;44.900;-0.764;2024-02-04T16:15:15;11.02;;;4.47;;
80199;SDS011;69520;44.900;-0.764;2024-02-04T16:17:42;11.45;;;4.80;;
80199;SDS011;69520;44.900;-0.764;2024-02-04T16:20:08;11.25;;;4.93;;
80199;SDS011;69520;44.900;-0.764;2024-02-04T16:22:34;10.53;;;4.60;;
80199;SDS011;69520;44.900;-0.764;2024-02-04T16:25:01;11.82;;;5.00;;
80199;SDS011;69520;44.900;-0.764;2024-02-04T16:27:27;12.60;;;4.95;;
80199;SDS011;69520;44.900;-0.764;2024-02-04T16:29:53;10.93;;;5.10;;
80199;SDS011;69520;44.900;-0.764;2024-02-04T16:32:19;13.57;;;5.50;;
80199;SDS011;69520;44.900;-0.764;2024-02-04T16:34:45;14.07;;;6.03;;
80199;SDS011;69520;44.900;-0.764;2024-02-04T16:37:11;17.23;;;6.82;;
80199;SDS011;69520;44.900;-0.764;2024-02-04T16:39:37;15.43;;;5.82;;
80199;SDS011;69520;44.900;-0.764;2024-02-04T16:42:03;14.85;;;5.88;;
80199;SDS011;69520;44.900;-0.764;2024-02-04T16:44:30;14.65;;;5.97;;
80199;SDS011;69520;44.900;-0.764;2024-02-04T16:46:57;13.47;;;5.77;;
80199;SDS011;69520;44.900;-0.764;2024-02-04T16:49:23;14.75;;;5.55;;
80199;SDS011;69520;44.900;-0.764;2024-02-04T16:51:50;14.95;;;6.03;;
80199;SDS011;69520;44.900;-0.764;2024-02-04T16:54:16;12.95;;;5.03;;
80199;SDS011;69520;44.900;-0.764;2024-02-04T16:56:43;13.48;;;5.30;;
80199;SDS011;69520;44.900;-0.764;2024-02-04T16:59:12;14.57;;;5.50;;
80199;SDS011;69520;44.900;-0.764;2024-02-04T17:01:38;16.13;;;5.60;;
80199;SDS011;69520;44.900;-0.764;2024-02-04T17:04:04;15.82;;;6.03;;
80199;SDS011;69520;44.900;-0.764;2024-02-04T17:06:31;14.75;;;5.63;;
80199;SDS011;69520;44.900;-0.764;2024-02-04T17:08:57;15.43;;;5.68;;
80199;SDS011;69520;44.900;-0.764;2024-02-04T17:11:26;14.53;;;5.60;;
80199;SDS011;69520;44.900;-0.764;2024-02-04T17:13:53;16.60;;;5.93;;
80199;SDS011;69520;44.900;-0.764;2024-02-04T17:16:28;13.27;;;4.95;;
80199;SDS011;69520;44.900;-0.764;2024-02-04T17:21:41;16.08;;;5.75;;
80199;SDS011;69520;44.900;-0.764;2024-02-04T17:24:16;16.97;;;6.03;;
80199;SDS011;69520;44.900;-0.764;2024-02-04T17:26:45;17.10;;;6.22;;
80199;SDS011;69520;44.900;-0.764;2024-02-04T17:29:13;16.17;;;6.15;;
80199;SDS011;69520;44.900;-0.764;2024-02-04T17:31:39;13.85;;;6.10;;
80199;SDS011;69520;44.900;-0.764;2024-02-04T17:34:05;18.05;;;7.53;;
80199;SDS011;69520;44.900;-0.764;2024-02-04T17:36:31;14.73;;;6.07;;
80199;SDS011;69520;44.900;-0.764;2024-02-04T17:38:58;15.18;;;6.25;;
80199;SDS011;69520;44.900;-0.764;2024-02-04T17:41:25;15.90;;;6.90;;
80199;SDS011;69520;44.900;-0.764;2024-02-04T17:43:51;17.02;;;7.25;;
80199;SDS011;69520;44.900;-0.764;2024-02-04T17:46:17;15.65;;;6.50;;
80199;SDS011;69520;44.900;-0.764;2024-02-04T17:48:43;13.97;;;5.70;;
80199;SDS011;69520;44.900;-0.764;2024-02-04T17:51:09;15.05;;;5.65;;
80199;SDS011;69520;44.900;-0.764;2024-02-04T17:53:35;17.58;;;6.55;;
80199;SDS011;69520;44.900;-0.764;2024-02-04T17:56:01;15.43;;;6.50;;
80199;SDS011;69520;44.900;-0.764;2024-02-04T17:58:28;17.92;;;7.32;;
80199;SDS011;69520;44.900;-0.764;2024-02-04T18:00:54;18.13;;;6.57;;
80199;SDS011;69520;44.900;-0.764;2024-02-04T18:03:20;15.57;;;6.50;;
80199;SDS011;69520;44.900;-0.764;2024-02-04T18:05:46;16.33;;;6.70;;
80199;SDS011;69520;44.900;-0.764;2024-02-04T18:08:13;15.07;;;5.82;;
80199;SDS011;69520;44.900;-0.764;2024-02-04T18:10:39;16.33;;;5.43;;
80199;SDS011;69520;44.900;-0.764;2024-02-04T18:13:05;15.67;;;5.53;;
80199;SDS011;69520;44.900;-0.764;2024-02-04T18:15:31;14.35;;;5.55;;
80199;SDS011;69520;44.900;-0.764;2024-02-04T18:17:57;13.63;;;5.65;;
80199;SDS011;69520;44.900;-0.764;2024-02-04T18:20:23;16.55;;;6.40;;
80199;SDS011;69520;44.900;-0.764;2024-02-04T18:22:49;15.52;;;6.07;;
80199;SDS011;69520;44.900;-0.764;2024-02-04T18:25:16;16.40;;;6.10;;
80199;SDS011;69520;44.900;-0.764;2024-02-04T18:27:42;16.27;;;6.60;;
80199;SDS011;69520;44.900;-0.764;2024-02-04T18:30:09;18.17;;;6.85;;
80199;SDS011;69520;44.900;-0.764;2024-02-04T18:32:36;22.35;;;8.35;;
80199;SDS011;69520;44.900;-0.764;2024-02-04T18:35:02;18.95;;;7.00;;
80199;SDS011;69520;44.900;-0.764;2024-02-04T18:37:28;17.10;;;6.70;;
80199;SDS011;69520;44.900;-0.764;2024-02-04T18:39:54;16.38;;;6.32;;
80199;SDS011;69520;44.900;-0.764;2024-02-04T18:42:20;16.75;;;6.60;;
80199;SDS011;69520;44.900;-0.764;2024-02-04T18:44:46;18.00;;;7.10;;
80199;SDS011;69520;44.900;-0.764;2024-02-04T18:47:15;17.17;;;6.53;;
80199;SDS011;69520;44.900;-0.764;2024-02-04T18:49:41;16.27;;;6.80;;
80199;SDS011;69520;44.900;-0.764;2024-02-04T18:52:07;18.40;;;7.25;;
80199;SDS011;69520;44.900;-0.764;2024-02-04T18:54:33;16.77;;;6.78;;
80199;SDS011;69520;44.900;-0.764;2024-02-04T18:57:00;19.92;;;7.57;;
80199;SDS011;69520;44.900;-0.764;2024-02-04T18:59:26;17.58;;;7.38;;
80199;SDS011;69520;44.900;-0.764;2024-02-04T19:01:53;16.47;;;6.40;;
80199;SDS011;69520;44.900;-0.764;2024-02-04T19:04:20;15.48;;;6.28;;
80199;SDS011;69520;44.900;-0.764;2024-02-04T19:06:47;16.77;;;6.78;;
80199;SDS011;69520;44.900;-0.764;2024-02-04T19:09:15;17.73;;;6.57;;
80199;SDS011;69520;44.900;-0.764;2024-02-04T19:11:41;19.00;;;8.40;;
80199;SDS011;69520;44.900;-0.764;2024-02-04T19:14:08;21.23;;;10.27;;
80199;SDS011;69520;44.900;-0.764;2024-02-04T19:16:34;20.83;;;9.30;;
80199;SDS011;69520;44.900;-0.764;2024-02-04T19:19:00;19.58;;;8.35;;
80199;SDS011;69520;44.900;-0.764;2024-02-04T19:21:28;19.33;;;7.80;;
80199;SDS011;69520;44.900;-0.764;2024-02-04T19:23:54;17.15;;;7.15;;
80199;SDS011;69520;44.900;-0.764;2024-02-04T19:26:26;17.27;;;7.57;;
80199;SDS011;69520;44.900;-0.764;2024-02-04T19:28:53;17.30;;;7.05;;
80199;SDS011;69520;44.900;-0.764;2024-02-04T19:31:19;19.45;;;7.05;;
80199;SDS011;69520;44.900;-0.764;2024-02-04T19:33:45;20.00;;;7.65;;
80199;SDS011;69520;44.900;-0.764;2024-02-04T19:36:12;19.88;;;7.20;;
80199;SDS011;69520;44.900;-0.764;2024-02-04T19:38:37;22.07;;;8.60;;
80199;SDS011;69520;44.900;-0.764;2024-02-04T19:41:04;20.80;;;7.78;;
80199;SDS011;69520;44.900;-0.764;2024-02-04T19:43:30;20.70;;;7.55;;
80199;SDS011;69520;44.900;-0.764;2024-02-04T19:45:56;18.65;;;7.20;;
80199;SDS011;69520;44.900;-0.764;2024-02-04T19:48:23;19.10;;;8.30;;
80199;SDS011;69520;44.900;-0.764;2024-02-04T19:50:49;23.30;;;7.80;;
80199;SDS011;69520;44.900;-0.764;2024-02-04T19:53:15;19.13;;;7.85;;
80199;SDS011;69520;44.900;-0.764;2024-02-04T19:55:41;19.00;;;6.95;;
80199;SDS011;69520;44.900;-0.764;2024-02-04T19:58:07;18.60;;;7.72;;
80199;SDS011;69520;44.900;-0.764;2024-02-04T20:00:33;21.48;;;8.02;;
80199;SDS011;69520;44.900;-0.764;2024-02-04T20:02:59;18.77;;;8.07;;
80199;SDS011;69520;44.900;-0.764;2024-02-04T20:05:27;22.33;;;8.55;;
80199;SDS011;69520;44.900;-0.764;2024-02-04T20:07:53;22.77;;;8.75;;
80199;SDS011;69520;44.900;-0.764;2024-02-04T20:10:19;21.75;;;8.55;;
80199;SDS011;69520;44.900;-0.764;2024-02-04T20:12:45;22.05;;;8.40;;
80199;SDS011;69520;44.900;-0.764;2024-02-04T20:15:14;24.53;;;9.07;;
80199;SDS011;69520;44.900;-0.764;2024-02-04T20:17:40;22.55;;;8.55;;
80199;SDS011;69520;44.900;-0.764;2024-02-04T20:20:06;22.42;;;8.30;;
80199;SDS011;69520;44.900;-0.764;2024-02-04T20:22:33;22.80;;;8.27;;
80199;SDS011;69520;44.900;-0.764;2024-02-04T20:24:59;20.50;;;7.88;;
80199;SDS011;69520;44.900;-0.764;2024-02-04T20:27:25;19.97;;;7.33;;
80199;SDS011;69520;44.900;-0.764;2024-02-04T20:29:51;21.92;;;8.00;;
80199;SDS011;69520;44.900;-0.764;2024-02-04T20:32:17;24.75;;;9.00;;
80199;SDS011;69520;44.900;-0.764;2024-02-04T20:34:43;23.27;;;8.93;;
80199;SDS011;69520;44.900;-0.764;2024-02-04T20:37:09;25.70;;;9.85;;
80199;SDS011;69520;44.900;-0.764;2024-02-04T20:39:35;25.07;;;9.40;;
80199;SDS011;69520;44.900;-0.764;2024-02-04T20:42:01;24.80;;;8.98;;
80199;SDS011;69520;44.900;-0.764;2024-02-04T20:44:27;26.58;;;9.07;;
80199;SDS011;69520;44.900;-0.764;2024-02-04T20:46:54;22.90;;;8.30;;
80199;SDS011;69520;44.900;-0.764;2024-02-04T20:49:20;26.65;;;9.57;;
80199;SDS011;69520;44.900;-0.764;2024-02-04T20:51:46;25.13;;;9.03;;
80199;SDS011;69520;44.900;-0.764;2024-02-04T20:54:12;27.77;;;9.30;;
80199;SDS011;69520;44.900;-0.764;2024-02-04T20:56:38;25.63;;;9.57;;
80199;SDS011;69520;44.900;-0.764;2024-02-04T20:59:04;24.15;;;9.30;;
80199;SDS011;69520;44.900;-0.764;2024-02-04T21:01:30;25.40;;;9.98;;
80199;SDS011;69520;44.900;-0.764;2024-02-04T21:03:56;24.87;;;9.17;;
80199;SDS011;69520;44.900;-0.764;2024-02-04T21:06:22;21.20;;;8.05;;
80199;SDS011;69520;44.900;-0.764;2024-02-04T21:08:56;26.17;;;9.18;;
80199;SDS011;69520;44.900;-0.764;2024-02-04T21:11:22;25.15;;;9.00;;
80199;SDS011;69520;44.900;-0.764;2024-02-04T21:13:48;25.13;;;8.55;;
80199;SDS011;69520;44.900;-0.764;2024-02-04T21:16:15;24.37;;;8.47;;
80199;SDS011;69520;44.900;-0.764;2024-02-04T21:18:42;22.40;;;7.75;;
80199;SDS011;69520;44.900;-0.764;2024-02-04T21:21:08;22.40;;;8.18;;
80199;SDS011;69520;44.900;-0.764;2024-02-04T21:23:35;25.65;;;8.30;;
80199;SDS011;69520;44.900;-0.764;2024-02-04T21:26:01;25.50;;;9.00;;
80199;SDS011;69520;44.900;-0.764;2024-02-04T21:28:27;23.43;;;8.07;;
80199;SDS011;69520;44.900;-0.764;2024-02-04T21:30:54;24.13;;;8.02;;
80199;SDS011;69520;44.900;-0.764;2024-02-04T21:33:20;25.80;;;9.43;;
80199;SDS011;69520;44.900;-0.764;2024-02-04T21:35:46;27.55;;;9.85;;
80199;SDS011;69520;44.900;-0.764;2024-02-04T21:38:12;30.52;;;9.43;;
80199;SDS011;69520;44.900;-0.764;2024-02-04T21:40:38;28.23;;;9.53;;
80199;SDS011;69520;44.900;-0.764;2024-02-04T21:43:07;28.08;;;9.35;;
80199;SDS011;69520;44.900;-0.764;2024-02-04T21:45:33;28.25;;;9.95;;
80199;SDS011;69520;44.900;-0.764;2024-02-04T21:47:59;37.35;;;9.85;;
80199;SDS011;69520;44.900;-0.764;2024-02-04T21:50:28;30.88;;;9.20;;